createdAt,value
2023-01-28T05:27:36.209Z,1.50
2023-01-28T05:28:39.363Z,1.70
2023-01-28T05:29:41.512Z,1.69
2023-01-28T05:30:44.717Z,1.57
2023-01-28T05:31:48.507Z,1.62
2023-01-28T05:32:57.041Z,1.75
2023-01-28T05:33:59.370Z,1.70
2023-01-28T05:35:02.525Z,1.66
2023-01-28T05:36:05.507Z,1.32
2023-01-28T05:37:08.667Z,1.78
2023-01-28T05:38:14.240Z,1.82
2023-01-28T05:39:17.360Z,1.76
2023-01-28T05:40:20.679Z,1.78
2023-01-28T05:41:22.840Z,1.56
2023-01-28T05:42:25.968Z,1.37
2023-01-28T05:43:29.465Z,1.64
2023-01-28T05:44:32.598Z,1.47
2023-01-28T05:45:34.872Z,1.61
2023-01-28T05:46:38.170Z,1.41
2023-01-28T05:47:40.509Z,1.49
2023-01-28T05:48:43.667Z,1.54
2023-01-28T05:49:46.457Z,1.47
2023-01-28T05:50:50.037Z,1.73
2023-01-28T05:51:52.374Z,1.46
2023-01-28T05:52:55.459Z,1.48
2023-01-28T05:53:57.599Z,1.16
2023-01-28T05:55:01.296Z,1.18
2023-01-28T05:56:03.705Z,1.55
2023-01-28T05:57:06.956Z,1.41
2023-01-28T05:58:09.087Z,1.34
2023-01-28T05:59:13.735Z,1.52
2023-01-28T06:00:17.105Z,1.50
2023-01-28T06:01:20.668Z,1.10
2023-01-28T06:02:22.979Z,1.21
2023-01-28T06:03:26.114Z,1.02
2023-01-28T06:04:28.275Z,0.86
2023-01-28T06:05:31.384Z,1.05
2023-01-28T06:06:33.691Z,1.05
2023-01-28T06:07:36.874Z,0.92
2023-01-28T06:08:38.957Z,0.96
2023-01-28T06:09:42.106Z,0.99
2023-01-28T06:10:44.311Z,1.18
2023-01-28T06:11:47.417Z,1.24
2023-01-28T06:12:49.551Z,1.14
2023-01-28T06:13:52.655Z,1.17
2023-01-28T06:14:56.170Z,1.13
2023-01-28T06:15:59.368Z,1.33
2023-01-28T06:17:01.483Z,1.03
2023-01-28T06:18:04.717Z,0.97
2023-01-28T06:19:07.093Z,0.96
2023-01-28T06:20:11.679Z,1.01
2023-01-28T06:21:14.149Z,1.09
2023-01-28T06:22:17.303Z,1.15
2023-01-28T06:23:19.382Z,1.45
2023-01-28T06:24:22.635Z,1.37
2023-01-28T06:25:24.822Z,1.46
2023-01-28T06:26:28.039Z,1.19
2023-01-28T06:27:31.578Z,1.14
2023-01-28T06:28:33.781Z,1.02
2023-01-28T06:29:36.978Z,0.93
2023-01-28T06:30:40.667Z,1.00
2023-01-28T06:31:43.861Z,0.98
2023-01-28T06:32:46.066Z,0.88
2023-01-28T06:33:49.156Z,0.86
2023-01-28T06:34:52.450Z,0.77
2023-01-28T06:35:55.569Z,0.93
2023-01-28T06:36:57.851Z,1.27
2023-01-28T06:38:00.983Z,1.00
2023-01-28T06:39:03.138Z,0.88
2023-01-28T06:40:07.144Z,1.26
2023-01-28T06:41:09.466Z,0.91
2023-01-28T06:42:12.785Z,0.90
2023-01-28T06:43:14.891Z,1.05
2023-01-28T06:44:18.255Z,1.15
2023-01-28T06:45:20.414Z,1.14
2023-01-28T06:46:25.344Z,1.23
2023-01-28T06:47:27.566Z,1.41
2023-01-28T06:48:30.986Z,1.11
2023-01-28T06:49:33.181Z,1.42
2023-01-28T06:50:36.293Z,1.19
2023-01-28T06:51:39.510Z,0.98
2023-01-28T06:52:41.752Z,1.03
2023-01-28T06:53:46.117Z,1.26
2023-01-28T06:54:48.315Z,0.76
2023-01-28T06:55:51.603Z,0.70
2023-01-28T06:56:53.731Z,0.95
2023-01-28T06:57:56.805Z,1.11
2023-01-28T06:58:58.997Z,1.26
2023-01-28T07:00:02.135Z,0.97
2023-01-28T07:01:04.438Z,1.29
2023-01-28T07:02:10.837Z,1.50
2023-01-28T07:03:12.980Z,1.29
2023-01-28T07:04:16.322Z,1.10
2023-01-28T07:05:18.463Z,1.31
2023-01-28T07:06:21.797Z,1.31
2023-01-28T07:07:30.402Z,1.32
2023-01-28T07:08:34.025Z,1.43
2023-01-28T07:09:36.258Z,1.41
2023-01-28T07:10:39.336Z,1.32
2023-01-28T07:11:46.722Z,1.28
2023-01-28T07:12:49.042Z,1.23
2023-01-28T07:13:52.183Z,1.25
2023-01-28T07:14:54.357Z,1.35
2023-01-28T07:15:57.499Z,1.43
2023-01-28T07:16:59.646Z,1.40
2023-01-28T07:18:04.271Z,1.40
2023-01-28T07:19:06.424Z,1.60
2023-01-28T07:20:13.450Z,1.56
2023-01-28T07:21:16.795Z,1.51
2023-01-28T07:22:18.991Z,1.57
2023-01-28T07:23:22.139Z,1.15
2023-01-28T07:24:24.255Z,1.21
2023-01-28T07:25:27.583Z,1.53
2023-01-28T07:26:29.754Z,1.95
2023-01-28T07:27:32.889Z,1.36
2023-01-28T07:28:36.145Z,1.35
2023-01-28T07:29:38.392Z,1.36
2023-01-28T07:30:41.601Z,1.64
2023-01-28T07:31:43.915Z,1.28
2023-01-28T07:32:47.997Z,1.16
2023-01-28T07:33:51.654Z,1.48
2023-01-28T07:34:55.432Z,1.68
2023-01-28T07:35:57.596Z,1.20
2023-01-28T07:37:00.743Z,0.97
2023-01-28T07:38:02.988Z,1.19
2023-01-28T07:39:06.707Z,1.00
2023-01-28T07:40:10.366Z,1.33
2023-01-28T07:41:13.619Z,1.38
2023-01-28T07:42:15.830Z,1.35
2023-01-28T07:43:19.137Z,1.29
2023-01-28T07:44:21.743Z,1.14
2023-01-28T07:45:26.504Z,1.22
2023-01-28T07:46:28.848Z,1.24
2023-01-28T07:47:32.168Z,1.21
2023-01-28T07:48:35.898Z,1.49
2023-01-28T07:49:41.005Z,1.67
2023-01-28T07:50:43.211Z,3.01
2023-01-28T07:51:47.087Z,3.70
2023-01-28T07:52:49.297Z,2.96
2023-01-28T07:53:52.509Z,1.98
2023-01-28T07:54:55.688Z,1.81
2023-01-28T07:56:01.472Z,1.90
2023-01-28T07:57:09.822Z,1.83
2023-01-28T07:58:12.798Z,1.75
2023-01-28T07:59:16.143Z,1.99
2023-01-28T08:00:19.324Z,2.23
2023-01-28T08:01:22.692Z,1.62
2023-01-28T08:02:25.030Z,1.72
2023-01-28T08:03:28.582Z,1.76
2023-01-28T08:04:31.067Z,1.70
2023-01-28T08:05:43.326Z,1.40
2023-01-28T08:06:45.545Z,1.04
2023-01-28T08:07:50.190Z,1.34
2023-01-28T08:08:52.850Z,1.19
2023-01-28T08:09:56.202Z,1.26
2023-01-28T08:10:58.419Z,1.52
2023-01-28T08:12:03.469Z,2.09
2023-01-28T08:13:06.946Z,2.20
2023-01-28T08:14:11.594Z,1.96
2023-01-28T08:15:13.848Z,2.19
2023-01-28T08:16:17.276Z,1.82
2023-01-28T08:17:19.484Z,1.87
2023-01-28T08:18:22.634Z,1.78
2023-01-28T08:19:25.057Z,1.61
2023-01-28T08:20:30.389Z,1.71
2023-01-28T08:21:33.954Z,2.13
2023-01-28T08:22:37.178Z,1.51
2023-01-28T08:23:40.430Z,1.54
2023-01-28T08:24:42.617Z,1.79
2023-01-28T08:25:46.957Z,2.59
2023-01-28T08:26:49.490Z,3.19
2023-01-28T08:27:52.777Z,2.66
2023-01-28T08:28:54.985Z,2.44
2023-01-28T08:29:58.180Z,2.35
2023-01-28T08:31:01.182Z,2.33
2023-01-28T08:32:04.428Z,2.61
2023-01-28T08:33:09.350Z,2.67
2023-01-28T08:34:12.052Z,2.81
2023-01-28T08:35:15.339Z,2.82
2023-01-28T08:36:17.631Z,2.21
2023-01-28T08:37:22.233Z,2.33
2023-01-28T08:38:24.529Z,2.41
2023-01-28T08:39:27.662Z,2.28
2023-01-28T08:40:30.750Z,1.97
2023-01-28T08:41:34.107Z,2.04
2023-01-28T08:42:36.450Z,1.85
2023-01-28T08:43:55.005Z,1.79
2023-01-28T08:44:57.149Z,2.09
2023-01-28T08:46:00.437Z,2.37
2023-01-28T08:47:02.681Z,2.17
2023-01-28T08:48:08.105Z,2.18
2023-01-28T08:49:11.432Z,3.37
2023-01-28T08:50:14.078Z,2.79
2023-01-28T08:51:17.411Z,2.50
2023-01-28T08:52:21.031Z,2.49
2023-01-28T08:53:24.266Z,2.72
2023-01-28T08:54:26.487Z,2.59
2023-01-28T08:55:30.377Z,3.28
2023-01-28T08:56:33.544Z,3.17
2023-01-28T08:57:35.684Z,2.76
2023-01-28T08:58:40.156Z,2.38
2023-01-28T08:59:45.105Z,1.87
2023-01-28T09:00:49.731Z,2.18
2023-01-28T09:01:52.023Z,2.27
2023-01-28T09:02:55.676Z,2.52
2023-01-28T09:03:57.917Z,2.18
2023-01-28T09:05:01.262Z,2.20
2023-01-28T09:06:05.948Z,2.00
2023-01-28T09:07:08.142Z,1.81
2023-01-28T09:08:14.692Z,2.18
2023-01-28T09:09:16.980Z,2.42
2023-01-28T09:10:20.607Z,2.56
2023-01-28T09:11:24.080Z,2.03
2023-01-28T09:12:27.064Z,2.16
2023-01-28T09:13:31.281Z,2.24
2023-01-28T09:14:33.504Z,2.47
2023-01-28T09:15:37.755Z,2.55
2023-01-28T09:16:40.999Z,2.42
2023-01-28T09:17:43.178Z,2.93
2023-01-28T09:18:48.243Z,2.48
2023-01-28T09:19:50.515Z,2.85
2023-01-28T09:20:53.631Z,2.79
2023-01-28T09:21:55.779Z,2.55
2023-01-28T09:23:00.770Z,2.16
2023-01-28T09:24:04.873Z,2.14
2023-01-28T09:25:08.866Z,2.52
2023-01-28T09:26:11.284Z,2.05
2023-01-28T09:27:14.617Z,3.11
2023-01-28T09:28:16.874Z,3.10
2023-01-28T09:29:20.210Z,2.72
2023-01-28T09:30:22.918Z,2.61
2023-01-28T09:31:26.415Z,2.83
2023-01-28T09:32:30.759Z,3.21
2023-01-28T09:33:35.132Z,2.62
2023-01-28T09:34:37.821Z,2.56
2023-01-28T09:35:40.956Z,2.83
2023-01-28T09:36:44.170Z,3.74
2023-01-28T09:37:46.789Z,4.37
2023-01-28T09:38:49.987Z,3.62
2023-01-28T09:39:53.578Z,3.49
2023-01-28T09:40:57.781Z,3.23
2023-01-28T09:42:16.759Z,2.97
2023-01-28T09:43:57.123Z,2.82
2023-01-28T09:45:08.642Z,2.50
2023-01-28T09:46:16.709Z,2.64
2023-01-28T09:47:26.605Z,3.08
2023-01-28T09:48:33.777Z,2.56
2023-01-28T09:49:44.154Z,2.36
2023-01-28T09:50:50.162Z,2.38
2023-01-28T09:51:56.454Z,2.11
2023-01-28T09:53:06.402Z,3.97
2023-01-28T09:54:23.072Z,3.99
2023-01-28T09:55:36.654Z,3.24
2023-01-28T09:56:46.618Z,3.17
2023-01-28T09:57:53.804Z,2.90
2023-01-28T09:58:58.201Z,2.22
2023-01-28T10:00:02.517Z,1.94
2023-01-28T10:01:25.888Z,1.97
2023-01-28T10:02:47.718Z,3.11
2023-01-28T10:04:01.029Z,3.06
2023-01-28T10:05:19.054Z,2.53
2023-01-28T10:06:35.242Z,2.45
2023-01-28T10:07:49.499Z,3.02
2023-01-28T10:09:22.267Z,2.94
2023-01-28T10:10:34.499Z,3.33
2023-01-28T10:11:53.511Z,3.05
2023-01-28T10:13:21.893Z,2.94
2023-01-28T10:14:40.773Z,3.06
2023-01-28T10:16:06.326Z,2.99
2023-01-28T10:17:18.277Z,3.18
2023-01-28T10:18:34.440Z,3.28
2023-01-28T10:19:42.881Z,2.87
2023-01-28T10:20:52.180Z,2.48
2023-01-28T10:22:02.103Z,2.63
2023-01-28T10:23:13.372Z,2.03
2023-01-28T10:24:19.788Z,2.20
2023-01-28T10:25:25.343Z,3.17
2023-01-28T10:26:36.704Z,3.81
2023-01-28T10:27:39.076Z,3.67
2023-01-28T10:28:42.300Z,3.39
2023-01-28T10:29:46.542Z,3.11
2023-01-28T10:30:49.336Z,2.72
2023-01-28T10:31:55.644Z,3.12
2023-01-28T10:33:04.452Z,3.21
2023-01-28T10:34:07.674Z,2.81
2023-01-28T10:35:10.854Z,2.60
2023-01-28T10:36:14.422Z,2.84
2023-01-28T10:37:17.907Z,3.22
2023-01-28T10:38:23.373Z,3.35
2023-01-28T10:39:29.444Z,3.05
2023-01-28T10:40:32.065Z,2.53
2023-01-28T10:41:40.024Z,2.74
2023-01-28T10:42:48.749Z,2.85
2023-01-28T10:43:52.229Z,2.95
2023-01-28T10:45:01.744Z,2.96
2023-01-28T10:46:13.160Z,4.21
2023-01-28T10:47:22.617Z,3.23
2023-01-28T10:48:30.537Z,4.15
2023-01-28T10:49:44.820Z,3.54
2023-01-28T10:50:53.239Z,2.99
2023-01-28T10:51:56.458Z,2.47
2023-01-28T10:53:00.993Z,2.78
2023-01-28T10:54:06.035Z,2.66
2023-01-28T10:55:15.017Z,2.47
2023-01-28T10:56:26.441Z,2.15
2023-01-28T10:57:30.994Z,2.60
2023-01-28T10:58:46.948Z,2.93
2023-01-28T10:59:50.880Z,2.95
2023-01-28T11:00:56.077Z,2.54
2023-01-28T11:02:03.651Z,2.44
2023-01-28T11:03:07.309Z,2.14
2023-01-28T11:04:19.924Z,2.12
2023-01-28T11:05:26.557Z,2.19
2023-01-28T11:06:30.604Z,2.57
2023-01-28T11:07:35.070Z,2.43
2023-01-28T11:08:44.877Z,2.84
2023-01-28T11:09:50.524Z,3.39
2023-01-28T11:10:54.068Z,2.94
2023-01-28T11:11:57.238Z,2.81
2023-01-28T11:13:02.641Z,2.54
2023-01-28T11:14:05.766Z,3.11
2023-01-28T11:15:18.313Z,3.03
2023-01-28T11:16:22.941Z,3.21
2023-01-28T11:17:29.693Z,2.73
2023-01-28T11:18:36.363Z,2.54
2023-01-28T11:19:40.701Z,3.05
2023-01-28T11:20:51.744Z,2.69
2023-01-28T11:21:58.022Z,3.07
2023-01-28T11:23:00.397Z,2.95
2023-01-28T11:24:07.813Z,4.34
2023-01-28T11:25:20.345Z,4.16
2023-01-28T11:26:27.951Z,3.98
2023-01-28T11:27:32.112Z,3.50
2023-01-28T11:28:41.985Z,3.94
2023-01-28T11:29:45.490Z,3.42
2023-01-28T11:30:55.208Z,4.09
2023-01-28T11:31:59.607Z,4.51
2023-01-28T11:33:09.300Z,3.46
2023-01-28T11:34:19.201Z,3.55
2023-01-28T11:35:28.748Z,4.15
2023-01-28T11:36:34.246Z,3.74
2023-01-28T11:37:37.902Z,3.30
2023-01-28T11:38:49.782Z,3.90
2023-01-28T11:40:03.305Z,3.64
2023-01-28T11:41:07.186Z,3.90
2023-01-28T11:42:17.785Z,3.35
2023-01-28T11:43:25.109Z,3.53
2023-01-28T11:44:28.671Z,3.55
2023-01-28T11:45:45.230Z,3.56
2023-01-28T11:47:14.181Z,3.72
2023-01-28T11:48:36.066Z,3.69
2023-01-28T11:50:05.324Z,3.13
2023-01-28T11:51:34.337Z,3.21
2023-01-28T11:53:08.032Z,3.80
2023-01-28T11:54:36.485Z,3.74
2023-01-28T11:55:49.252Z,4.28
2023-01-28T11:57:17.775Z,3.77
2023-01-28T11:58:24.352Z,4.00
2023-01-28T11:59:55.412Z,4.16
2023-01-28T12:01:10.523Z,7.72
2023-01-28T12:02:40.728Z,7.61
2023-01-28T12:04:04.331Z,3.62
2023-01-28T12:05:22.081Z,3.79
2023-01-28T12:06:48.285Z,3.84
2023-01-28T12:08:03.206Z,3.97
2023-01-28T12:09:17.003Z,3.22
2023-01-28T12:10:31.216Z,2.98
2023-01-28T12:12:05.130Z,3.42
2023-01-28T12:13:35.166Z,4.20
2023-01-28T12:15:06.220Z,3.86
2023-01-28T12:16:40.483Z,4.34
2023-01-28T12:18:01.643Z,3.97
2023-01-28T12:19:19.736Z,4.29
2023-01-28T12:20:32.372Z,3.92
2023-01-28T12:21:53.603Z,3.82
2023-01-28T12:23:11.383Z,3.58
2023-01-28T12:24:36.642Z,4.03
2023-01-28T12:26:06.070Z,3.95
2023-01-28T12:27:24.808Z,4.24
2023-01-28T12:28:44.543Z,4.87
2023-01-28T12:30:00.747Z,3.73
2023-01-28T12:31:33.729Z,3.53
2023-01-28T12:32:56.265Z,3.54
2023-01-28T12:34:32.777Z,4.00
2023-01-28T12:35:51.119Z,3.11
2023-01-28T12:37:05.487Z,4.17
2023-01-28T12:38:15.849Z,5.28
2023-01-28T12:39:36.106Z,5.77
2023-01-28T12:41:06.026Z,5.63
2023-01-28T12:42:15.318Z,4.50
2023-01-28T12:43:26.745Z,4.31
2023-01-28T12:44:35.879Z,4.19
2023-01-28T12:45:42.098Z,4.70
2023-01-28T12:46:52.787Z,3.56
2023-01-28T12:48:02.376Z,2.82
2023-01-28T12:49:14.418Z,3.47
2023-01-28T12:50:23.836Z,3.59
2023-01-28T12:51:36.950Z,3.77
2023-01-28T12:52:46.795Z,3.82
2023-01-28T12:53:58.196Z,5.17
2023-01-28T12:55:12.457Z,4.33
2023-01-28T12:56:20.941Z,3.68
2023-01-28T12:57:28.020Z,4.16
2023-01-28T12:58:43.544Z,3.96
2023-01-28T12:59:54.140Z,4.34
2023-01-28T13:01:06.197Z,3.99
2023-01-28T13:02:24.810Z,4.31
2023-01-28T13:03:36.547Z,4.29
2023-01-28T13:04:47.349Z,4.94
2023-01-28T13:05:54.387Z,4.63
2023-01-28T13:07:03.039Z,4.66
2023-01-28T13:08:15.432Z,4.41
2023-01-28T13:09:22.545Z,3.96
2023-01-28T13:10:30.119Z,4.47
2023-01-28T13:11:37.159Z,4.46
2023-01-28T13:12:42.796Z,5.97
2023-01-28T13:13:47.802Z,5.39
2023-01-28T13:14:54.251Z,4.66
2023-01-28T13:15:58.722Z,4.60
2023-01-28T13:17:11.170Z,4.40
2023-01-28T13:18:33.969Z,4.44
2023-01-28T13:19:40.674Z,4.12
2023-01-28T13:20:50.550Z,4.87
2023-01-28T13:21:53.115Z,6.01
2023-01-28T13:23:02.556Z,7.82
2023-01-28T13:24:19.971Z,7.13
2023-01-28T13:25:23.997Z,5.92
2023-01-28T13:26:37.657Z,6.13
2023-01-28T13:27:39.943Z,5.30
2023-01-28T13:28:43.131Z,4.09
2023-01-28T13:29:50.484Z,4.02
2023-01-28T13:31:00.474Z,3.87
2023-01-28T13:32:34.526Z,3.50
2023-01-28T13:33:39.020Z,4.31
2023-01-28T13:34:44.589Z,4.35
2023-01-28T13:35:56.417Z,4.00
2023-01-28T13:37:03.491Z,4.05
2023-01-28T13:38:11.420Z,4.25
2023-01-28T13:39:21.122Z,4.06
2023-01-28T13:40:28.094Z,4.19
2023-01-28T13:41:42.587Z,5.03
2023-01-28T13:42:45.731Z,4.21
2023-01-28T13:43:48.983Z,3.87
2023-01-28T13:44:51.544Z,2.62
2023-01-28T13:45:59.627Z,2.94
2023-01-28T13:47:21.727Z,4.62
2023-01-28T13:48:33.938Z,5.11
2023-01-28T13:49:42.406Z,3.99
2023-01-28T13:50:46.681Z,3.04
2023-01-28T13:51:59.907Z,3.64
2023-01-28T13:53:14.298Z,4.89
2023-01-28T13:54:21.811Z,4.13
2023-01-28T13:55:43.627Z,4.78
2023-01-28T13:57:11.955Z,3.99
2023-01-28T13:58:59.547Z,5.71
2023-01-28T14:00:14.161Z,4.05
2023-01-28T14:01:35.175Z,3.89
2023-01-28T14:03:11.084Z,3.85
2023-01-28T14:04:55.030Z,4.49
2023-01-28T14:06:19.876Z,3.22
2023-01-28T14:07:50.500Z,3.01
2023-01-28T14:09:13.010Z,3.03
2023-01-28T14:10:39.816Z,3.10
2023-01-28T14:12:14.220Z,2.52
2023-01-28T14:13:39.556Z,6.42
2023-01-28T14:15:16.630Z,11.40
2023-01-28T14:16:36.133Z,10.17
2023-01-28T14:17:44.344Z,7.65
2023-01-28T14:18:50.338Z,5.23
2023-01-28T14:19:56.182Z,5.38
2023-01-28T14:21:04.140Z,5.73
2023-01-28T14:22:15.332Z,4.10
2023-01-28T14:23:21.969Z,3.39
2023-01-28T14:24:26.073Z,3.47
2023-01-28T14:25:47.843Z,3.62
2023-01-28T14:27:01.712Z,4.41
2023-01-28T14:28:11.862Z,3.51
2023-01-28T14:29:29.468Z,3.28
2023-01-28T14:30:46.964Z,3.07
2023-01-28T14:31:52.231Z,2.60
2023-01-28T14:32:55.980Z,1.58
2023-01-28T14:34:08.789Z,2.65
2023-01-28T14:35:21.256Z,4.53
2023-01-28T14:36:26.220Z,4.05
2023-01-28T14:37:33.896Z,3.98
2023-01-28T14:38:42.099Z,3.80
2023-01-28T14:39:49.553Z,3.99
2023-01-28T14:40:54.755Z,3.47
2023-01-28T14:42:02.416Z,3.35
2023-01-28T14:43:10.121Z,2.41
2023-01-28T14:44:27.283Z,6.56
2023-01-28T14:45:52.461Z,6.41
2023-01-28T14:47:10.625Z,5.83
2023-01-28T14:48:26.575Z,4.35
2023-01-28T14:49:42.368Z,4.68
2023-01-28T14:51:07.153Z,2.90
2023-01-28T14:52:39.191Z,2.43
2023-01-28T14:54:06.395Z,1.60
2023-01-28T14:55:26.796Z,1.28
2023-01-28T14:56:46.016Z,1.24
2023-01-28T14:57:56.673Z,1.11
2023-01-28T14:59:05.951Z,1.52
2023-01-28T15:00:20.718Z,3.01
2023-01-28T15:01:26.623Z,5.46
2023-01-28T15:02:32.482Z,5.24
2023-01-28T15:03:35.559Z,4.67
2023-01-28T15:04:38.802Z,3.47
2023-01-28T15:05:40.996Z,2.47
2023-01-28T15:06:45.521Z,3.19
2023-01-28T15:07:50.431Z,3.29
2023-01-28T15:08:53.622Z,2.57
2023-01-28T15:10:03.863Z,2.35
2023-01-28T15:11:10.425Z,2.77
2023-01-28T15:12:15.756Z,2.22
2023-01-28T15:13:26.902Z,1.81
2023-01-28T15:14:32.088Z,1.37
2023-01-28T15:15:38.110Z,1.06
2023-01-28T15:16:41.471Z,1.28
2023-01-28T15:17:44.866Z,1.57
2023-01-28T15:18:50.790Z,1.26
2023-01-28T15:19:57.996Z,1.30
2023-01-28T15:21:02.984Z,1.81
2023-01-28T15:22:08.768Z,3.07
2023-01-28T15:24:24.713Z,1.69
2023-01-28T15:25:30.820Z,1.47
2023-01-28T15:26:34.825Z,1.16
2023-01-28T15:27:38.100Z,1.49
2023-01-28T15:28:44.018Z,2.38
2023-01-28T15:29:54.381Z,2.70
2023-01-28T15:30:59.559Z,8.70
2023-01-28T15:32:03.932Z,6.72
2023-01-28T15:33:16.920Z,3.63
2023-01-28T15:34:20.796Z,2.29
2023-01-28T15:35:23.948Z,2.19
2023-01-28T15:36:27.573Z,1.86
2023-01-28T15:37:31.172Z,1.78
2023-01-28T15:38:34.360Z,1.48
2023-01-28T15:39:36.626Z,2.23
2023-01-28T15:40:45.241Z,2.93
2023-01-28T15:41:53.065Z,2.38
2023-01-28T15:42:58.717Z,2.90
2023-01-28T15:44:02.576Z,3.61
2023-01-28T15:45:14.522Z,3.13
2023-01-28T15:46:18.166Z,2.76
2023-01-28T15:47:26.954Z,2.50
2023-01-28T15:48:34.775Z,2.40
2023-01-28T15:49:46.537Z,2.04
2023-01-28T15:50:50.100Z,2.67
2023-01-28T15:51:53.358Z,2.73
2023-01-28T15:52:58.296Z,2.10
2023-01-28T15:54:05.770Z,2.21
2023-01-28T15:55:29.545Z,1.86
2023-01-28T15:56:33.428Z,1.75
2023-01-28T15:57:35.864Z,1.47
2023-01-28T15:58:42.293Z,1.70
2023-01-28T15:59:47.308Z,1.61
2023-01-28T16:00:50.967Z,1.55
2023-01-28T16:02:18.109Z,1.34
2023-01-28T16:03:23.468Z,2.09
2023-01-28T16:04:29.023Z,2.98
2023-01-28T16:05:36.453Z,2.21
2023-01-28T16:06:42.744Z,1.56
2023-01-28T16:07:46.761Z,2.21
2023-01-28T16:08:58.907Z,1.95
2023-01-28T16:10:05.095Z,2.25
2023-01-28T16:11:10.210Z,3.12
2023-01-28T16:12:15.551Z,1.95
2023-01-28T16:13:23.601Z,1.49
2023-01-28T16:14:32.332Z,1.13
2023-01-28T16:15:36.647Z,1.45
2023-01-28T16:16:40.170Z,2.80
2023-01-28T16:17:48.575Z,2.45
2023-01-28T16:18:55.935Z,1.53
2023-01-28T16:20:02.869Z,1.53
2023-01-28T16:21:10.478Z,1.23
2023-01-28T16:22:21.955Z,1.20
2023-01-28T16:23:28.924Z,1.71
2023-01-28T16:24:36.179Z,2.36
2023-01-28T16:25:38.870Z,2.55
2023-01-28T16:26:41.979Z,2.84
2023-01-28T16:27:44.049Z,2.82
2023-01-28T16:28:47.166Z,3.45
2023-01-28T16:29:50.560Z,2.86
2023-01-28T16:30:53.057Z,2.15
2023-01-28T16:31:57.228Z,2.07
2023-01-28T16:33:00.377Z,4.52
2023-01-28T16:34:03.574Z,3.82
2023-01-28T16:35:14.921Z,5.26
2023-01-28T16:36:19.830Z,5.37
2023-01-28T16:37:22.070Z,4.84
2023-01-28T16:39:36.840Z,2.31
2023-01-28T16:40:39.325Z,3.09
2023-01-28T16:41:46.294Z,5.43
2023-01-28T16:42:49.723Z,3.38
2023-01-28T16:43:52.875Z,2.17
2023-01-28T16:44:55.063Z,2.04
2023-01-28T16:45:58.335Z,2.24
2023-01-28T16:47:05.906Z,3.83
2023-01-28T16:48:11.741Z,3.11
2023-01-28T16:49:14.948Z,3.40
2023-01-28T16:50:21.802Z,2.88
2023-01-28T16:51:25.089Z,2.46
2023-01-28T16:52:29.111Z,1.79
2023-01-28T16:53:34.949Z,2.62
2023-01-28T16:54:43.143Z,2.31
2023-01-28T16:55:45.552Z,2.24
2023-01-28T16:56:48.939Z,2.35
2023-01-28T16:57:54.845Z,2.60
2023-01-28T16:58:58.826Z,2.03
2023-01-28T17:00:01.017Z,1.81
2023-01-28T17:01:04.218Z,1.30
2023-01-28T17:02:07.618Z,1.13
2023-01-28T17:03:12.425Z,1.19
2023-01-28T17:04:16.620Z,1.06
2023-01-28T17:05:20.029Z,1.51
2023-01-28T17:06:23.163Z,3.30
2023-01-28T17:07:26.699Z,5.34
2023-01-28T17:08:28.828Z,3.75
2023-01-28T17:09:32.207Z,2.76
2023-01-28T17:10:36.749Z,2.96
2023-01-28T17:11:40.789Z,2.96
2023-01-28T17:12:44.280Z,2.84
2023-01-28T17:13:46.724Z,2.20
2023-01-28T17:14:49.920Z,2.18
2023-01-28T17:15:52.865Z,1.87
2023-01-28T17:16:56.043Z,2.01
2023-01-28T17:17:59.178Z,2.97
2023-01-28T17:19:02.321Z,2.86
2023-01-28T17:20:06.191Z,3.61
2023-01-28T17:21:09.294Z,4.19
2023-01-28T17:22:12.539Z,3.23
2023-01-28T17:23:16.568Z,2.73
2023-01-28T17:24:19.774Z,1.90
2023-01-28T17:25:22.010Z,1.80
2023-01-28T17:26:26.455Z,1.91
2023-01-28T17:27:28.594Z,2.44
2023-01-28T17:28:31.996Z,2.54
2023-01-28T17:29:34.200Z,2.92
2023-01-28T17:30:41.523Z,2.97
2023-01-28T17:31:43.853Z,2.91
2023-01-28T17:32:47.093Z,2.70
2023-01-28T17:33:54.880Z,2.39
2023-01-28T17:34:58.057Z,2.32
2023-01-28T17:36:01.969Z,1.95
2023-01-28T17:37:04.143Z,2.13
2023-01-28T17:38:07.321Z,2.05
2023-01-28T17:39:09.488Z,2.02
2023-01-28T17:40:13.892Z,2.59
2023-01-28T17:41:17.369Z,2.76
2023-01-28T17:42:21.900Z,2.93
2023-01-28T17:43:24.134Z,2.48
2023-01-28T17:44:27.245Z,3.08
2023-01-28T17:45:31.967Z,2.50
2023-01-28T17:46:35.193Z,2.41
2023-01-28T17:47:37.562Z,2.87
2023-01-28T17:48:41.198Z,2.20
2023-01-28T17:49:43.311Z,2.16
2023-01-28T17:50:46.496Z,2.96
2023-01-28T17:51:48.887Z,1.75
2023-01-28T17:52:55.950Z,1.91
2023-01-28T17:53:59.162Z,1.48
2023-01-28T17:55:02.300Z,1.28
2023-01-28T17:56:06.569Z,1.52
2023-01-28T17:57:08.731Z,1.79
2023-01-28T17:58:13.269Z,1.56
2023-01-28T17:59:17.536Z,1.98
2023-01-28T18:00:21.012Z,2.41
2023-01-28T18:01:26.142Z,2.34
2023-01-28T18:02:29.545Z,3.18
2023-01-28T18:03:32.630Z,2.92
2023-01-28T18:04:40.323Z,2.77
2023-01-28T18:05:42.872Z,3.41
2023-01-28T18:06:47.081Z,3.02
2023-01-28T18:07:50.458Z,2.72
2023-01-28T18:08:54.038Z,3.34
2023-01-28T18:09:56.318Z,4.05
2023-01-28T18:10:59.546Z,3.07
2023-01-28T18:12:01.701Z,3.11
2023-01-28T18:13:04.879Z,2.87
2023-01-28T18:14:08.848Z,3.34
2023-01-28T18:15:13.594Z,2.83
2023-01-28T18:16:19.533Z,2.31
2023-01-28T18:17:26.799Z,4.87
2023-01-28T18:52:40.612Z,2.78
2023-01-28T19:04:29.611Z,1.53
2023-01-28T19:15:02.188Z,2.77
2023-01-28T19:26:12.070Z,5.89
2023-01-28T19:34:33.431Z,3.37
2023-01-28T19:36:06.361Z,2.89
2023-01-28T19:38:16.175Z,4.19
2023-01-28T19:40:30.130Z,3.09
2023-01-28T19:42:03.556Z,2.66
2023-01-28T19:44:56.805Z,3.88
2023-01-28T19:47:55.123Z,3.08
2023-01-28T19:49:23.649Z,2.41
2023-01-28T19:50:53.090Z,2.68
2023-01-28T19:51:55.540Z,2.20
2023-01-28T19:52:58.869Z,1.93
2023-01-28T19:54:02.590Z,2.10
2023-01-28T19:55:05.873Z,4.26
2023-01-28T19:56:11.159Z,4.48
2023-01-28T19:57:15.848Z,5.06
2023-01-28T19:58:18.473Z,5.39
2023-01-28T19:59:21.755Z,6.51
2023-01-28T20:05:32.344Z,5.95
2023-01-28T20:15:35.077Z,5.09
2023-01-28T20:21:45.764Z,5.85
2023-01-28T20:23:02.287Z,4.92
2023-01-28T20:24:22.931Z,3.56
2023-01-28T20:28:24.415Z,2.73
2023-01-28T20:31:24.840Z,6.38
2023-01-28T20:32:40.867Z,6.34
2023-01-28T20:34:11.945Z,8.46
2023-01-28T20:35:28.185Z,11.31
2023-01-28T20:36:34.425Z,8.91
2023-01-28T20:37:49.633Z,8.79
2023-01-28T20:38:55.631Z,8.68
2023-01-28T20:39:58.916Z,6.67
2023-01-28T20:41:06.621Z,5.32
2023-01-28T20:42:10.871Z,5.94
2023-01-28T20:43:14.140Z,8.22
2023-01-28T20:44:16.336Z,8.89
2023-01-28T20:45:19.606Z,7.10
2023-01-28T20:46:27.755Z,6.25
2023-01-28T20:47:31.764Z,7.91
2023-01-28T20:48:34.011Z,9.22
2023-01-28T20:49:37.170Z,7.88
2023-01-28T20:50:41.421Z,7.94
2023-01-28T20:52:07.154Z,7.85
2023-01-28T20:53:26.001Z,5.29
2023-01-28T20:54:41.621Z,6.05
2023-01-28T20:55:59.989Z,6.59
2023-01-28T20:57:33.609Z,6.76
2023-01-28T20:59:36.660Z,5.73
2023-01-28T21:00:53.922Z,7.81
2023-01-28T21:02:03.544Z,7.70
2023-01-28T21:03:10.651Z,7.37
2023-01-28T21:04:17.187Z,7.32
2023-01-28T21:05:53.491Z,6.73
2023-01-28T21:08:47.149Z,7.10
2023-01-28T21:09:50.368Z,6.60
2023-01-28T21:12:22.420Z,5.56
2023-01-28T21:13:50.897Z,6.80
2023-01-28T21:14:55.985Z,7.14
2023-01-28T21:16:15.300Z,5.90
2023-01-28T21:17:18.937Z,9.33
2023-01-28T21:18:22.552Z,6.90
2023-01-28T21:19:25.942Z,6.33
2023-01-28T21:20:29.152Z,6.94
2023-01-28T21:21:34.348Z,5.69
2023-01-28T21:22:36.640Z,8.00
2023-01-28T21:23:39.988Z,7.34
2023-01-28T21:24:43.849Z,8.42
2023-01-28T21:25:55.129Z,7.96
2023-01-28T21:27:08.072Z,8.24
2023-01-28T21:28:12.219Z,10.03
2023-01-28T21:29:15.070Z,7.70
2023-01-28T21:30:20.179Z,7.16
2023-01-28T21:31:25.264Z,6.68
2023-01-28T21:32:31.441Z,6.74
2023-01-28T21:33:33.717Z,9.21
2023-01-28T21:34:45.232Z,7.29
2023-01-28T21:35:53.879Z,8.89
2023-01-28T21:37:07.780Z,8.65
2023-01-28T21:38:10.797Z,7.41
2023-01-28T21:39:19.418Z,6.97
2023-01-28T21:40:34.171Z,6.79
2023-01-28T21:41:41.489Z,7.49
2023-01-28T21:42:48.030Z,8.22
2023-01-28T21:44:14.174Z,6.82
2023-01-28T21:45:19.310Z,6.69
2023-01-28T21:46:46.157Z,7.33
2023-01-28T21:48:18.586Z,10.34
2023-01-28T21:49:22.098Z,9.65
2023-01-28T21:50:47.136Z,8.09
2023-01-28T21:52:16.594Z,7.42
2023-01-28T21:55:00.174Z,8.77
2023-01-28T21:56:08.275Z,9.50
2023-01-28T21:59:08.954Z,7.55
2023-01-28T22:00:20.894Z,14.40
2023-01-28T22:01:23.482Z,8.77
2023-01-28T22:02:26.892Z,9.19
2023-01-28T22:03:31.951Z,9.10
2023-01-28T22:04:37.596Z,8.44
2023-01-28T22:05:39.924Z,8.18
2023-01-28T22:06:46.902Z,7.71
2023-01-28T22:07:50.532Z,8.55
2023-01-28T22:08:55.069Z,10.78
2023-01-28T22:09:58.341Z,9.88
2023-01-28T22:11:02.900Z,11.27
2023-01-28T22:12:08.063Z,11.65
2023-01-28T22:13:10.332Z,10.44
2023-01-28T22:14:19.504Z,9.50
2023-01-28T22:15:22.711Z,8.58
2023-01-28T22:16:24.920Z,8.73
2023-01-28T22:17:32.271Z,8.99
2023-01-28T22:18:35.926Z,7.47
2023-01-28T22:19:48.104Z,8.05
2023-01-28T22:21:00.209Z,8.42